aviador You're here:

SCDA Decoded Metar

IQUIQUE in CHILE
Report Time2018-06-25 06:00:00
UTC Time2018-06-25 06:22:10
Flight Rules vfr VFR
Wind210° at 09 kt
W.Decomp.*RWY 19: 8.3 kt HW 3.5 kt RCW
W.Rank210° ranks 1
Current wind is below 210° avg. (10.6)
Visibility9999 m
Phenomena:N/A
Clouds:Overcast 030 Hf
Expected CloudBase > 2,400 ft AGL from Temp-Dew spread
Ceiling3,000 ft
Temp16°C (ISA +1)
Dew Point10°C (68% RH)
AAT12.8°C
QNH1017 hPa
Density Alt361 ft
Elevation171 ft
Report Wrong Elevation
Raw Report
SCDA 250600Z 21009KT 9999 OVC030 16/10 Q1017=

Extra information for SCDA:More info

Metar Taf Metar & Taf Last 4 Metars F.Rules Stats Wind Profile Meteogram Temp Stats Airport Information Weather charts Add Link Nearby VenuesMetar ALERT Operation Metar Decoded Social comments